메인 페이지
METAR-TAF:

METAR-TAF

공항 :

시카고, 일리노이, 미국

시카고 오헤어 국제공항

위도: 41-58-47N, 경도: 087-54-16W, 고도: 203m

현재 날씨관측

예보는 33분 전, 08:21시(UTC)에 발표되었습니다.
4kt
온도 4°C
습도 87%
기압 1016 hPa
시정: 12.9km
고도 3000ft 상공 흐림

METAR: KORD 210821Z 18004KT 8SM OVC030 04/02 A2999 RMK AO2 T00390017

시각: 02:54 (08:54 UTC)

예보

예보는 3 시간 15분 전, 05:39시(UTC)에 발표되었습니다.
예보 대상 시간: 21일 06시부터 22일 12시까지 (UTC)
남남서5kt
시정: 10km
고도 1800ft 상공 흐림
21일 1000시부터 (UTC)
남남동4kt
시정: 4.8km
고도 900ft 상공 흐림
박무
일시적
21일 11시부터 21일 14시까지 (UTC)
시정: 1.6km
고도 400ft 상공 흐림
박무
21일 1900시부터 (UTC)
4kt
시정: 2.4km
고도 700ft 상공 흐림
약한이슬비, 박무
일시적
21일 21시부터 21일 24시까지 (UTC)
시정: 2.8km
고도 300ft 상공 흐림
약한이슬비, 박무
22일 0000시부터 (UTC)
동남동6kt
시정: 1.6km
고도 300ft 상공 흐림
약한이슬비, 박무
22일 1000시부터 (UTC)
동남동7kt
시정: 1.6km
고도 400ft 상공 흐림
소나기, 박무

TAF: KORD 210539Z 2106/2212 20005KT P6SM OVC018 FM211000 15004KT 3SM BR OVC009 TEMPO 2111/2114 1SM BR OVC004 FM211900 10004KT 1 1/2SM -DZ BR OVC007 TEMPO 2121/2124 3/4SM -DZ BR OVC003 FM220000 11006KT 1SM -DZ BR OVC003 FM221000 12007KT 2SM SHRA BR OVC004

4,000개 이상의 공항 관측 자료 및 예보 (METAR 및 TAF 보고).

지도상에서 검색 가능한 기상관측소가 노란 점과 빨간 점으로 표시되어 있습니다.

기상관측소 명을 보려면 표시 위로 마우스를 이동하세요.

날씨 관측과 예보를 보려면 클릭하세요.

지도 변경 : 확대하려면 엑스 표시가 있는 녹색 버튼, 축소하려면 빼기 표시가 있는 녹색 버튼, 다음 페이지의 지도를 보려면 녹색 화살표를 클릭하세요.


METAR-TAF: